AirNav   Everest Fuels
 
 1610 users online  

3TA5 Blanco Landing Airport
Blanco, Texas, USA

GOING TO BLANCO?


FAA INFORMATION EFFECTIVE 10 SEPTEMBER 2020

Location

FAA Identifier: 3TA5
Lat/Long: 30-07-20.8800N 098-22-29.2200W
30-07.348000N 098-22.487000W
30.1224667,-98.3747833
(estimated)
Elevation: 1460 ft. / 445 m (estimated)
Variation: 07E (1985)
From city: 3 miles NE of BLANCO, TX
Time zone: UTC -5 (UTC -6 during Standard Time)
Zip code: 78606

Airport Operations

Airport use: Private use. Permission required prior to landing
Activation date: 03/1981
Control tower: no
ARTCC: HOUSTON CENTER
FSS: SAN ANGELO FLIGHT SERVICE STATION
Attendance: UNATNDD
Wind indicator: yes
Segmented circle: no

Airport Communications

CTAF: 122.9

Nearby radio navigation aids

VOR radial/distance  VOR name  Freq  Var
STVr098/17.9STONEWALL VORTAC113.8008E
SATr001/29.1SAN ANTONIO VORTAC116.8008E
RNDr348/36.5RANDOLPH VORTAC112.3005E

Airport Services

Runway Information

Runway 1/19

Dimensions: 3450 x 27 ft. / 1052 x 8 m
Surface: asphalt
RUNWAY 1  RUNWAY 19
Traffic pattern: leftleft

Airport Ownership and Management from official FAA records

Ownership: Privately-owned
Owner: THE LANDING P.O.A.
3238 HWY 281 N
BLANCO, TX 78606
Phone (510) 910-3269
Manager: ROBERT GARCIA JR
3238 HWY 281 N
BLANCO, TX 78606
Phone (915) 525-7792
OTR (512) 461-5158

Airport Operational Statistics

Aircraft based on the field: 9
Single engine airplanes: 8
Helicopters: 1
    

Additional Remarks

FOR CD CTC HOUSTON ARTCC AT 281-230-5622.
RCMD OVER-FLY FLD TO INSURE RWY CLEAR OF WILDLIFE & MAINT CREWS AND TO CHECK WIND DRCTN FOR LNDG.
TALL TREES AT SOUTH AER TO INSURE PROPER CLNC.

Instrument Procedures

There are no published instrument procedures at 3TA5.

Some nearby airports with instrument procedures:

3R9 - Lakeway Airpark (24 nm NE)
T82 - Gillespie County Airport (29 nm W)
5C1 - Boerne Stage Field Airport (29 nm SW)
KHYI - San Marcos Regional Airport (30 nm SE)
KBAZ - New Braunfels Regional Airport (30 nm SE)
 
Loc | Ops | Rwys | IFR | FBO | Links
Com | Nav | Svcs | Stats | Notes
Area around 3TA5 (Blanco Landing Airport)
 
Road maps at: MapQuest Bing Google
 
Aerial photo
WARNING: Photo may not be current or correct
Aerial photo of 3TA5 (Blanco Landing Airport)
Photo taken 18-Jul-2017
looking south.

Do you have a better or more recent aerial photo of Blanco Landing Airport that you would like to share? If so, please send us your photo.

 
Sectional chart

 
Airport distance calculator
Flying to Blanco Landing Airport? Find the distance to fly.

From to 3TA5

Sunrise and sunset
Times for 25-Sep-2020
 Local
(UTC-5)
 Zulu
(UTC)
Morning civil twilight07:0112:01
Sunrise07:2512:25
Sunset19:2500:25
Evening civil twilight19:4900:49

Current date and time
Zulu (UTC)  25-Sep-2020 15:24:32
Local (UTC-5)  25-Sep-2020 10:24:32
 
METAR
KDZB 
24nm N 
251456Z AUTO 23005KT 10SM BKN012 22/18 A3004 RMK AO2
KT82 
29nm W 
251450Z AUTO 21007KT 10SM OVC008 18/18 A3006 RMK AO2 T01840178
K5C1 
29nm SW 
251455Z AUTO 22003KT 10SM OVC015 20/18 A3006 RMK AO1
KBAZ 
30nm SE 
251451Z 18003KT 10SM SCT009 22/19 A3002 RMK AO2 SLP159 T02220189 53015
KHYI 
30nm SE 
251456Z 20005KT 10SM FEW008 21/19 A3004 RMK AO2 SLP166 T02110189 51017
KRYW 
31nm NE 
251455Z AUTO 21005KT 10SM OVC005 18/17 A3005 RMK AO2 T01780168
KSAT 
36nm S 
251451Z 14005KT 10SM BKN023 BKN250 21/18 A3003 RMK AO2 SLP154 T02060178 51015
KAUS 
36nm E 
251453Z 00000KT 10SM FEW010 22/18 A3003 RMK AO2 SLP163 T02170183 53016
KATT 
37nm E 
251451Z AUTO VRB03KT 10SM CLR 22/18 A3004 RMK AO2 SLP165 T02170178 53017 $
KRND 
37nm S 
251456Z AUTO 15005KT 10SM CLR 22/18 A3003 RMK AO2 SLP164 T02190181 52016
TAF
KSAT 
36nm S 
251128Z 2512/2618 VRB03KT P6SM SCT015 FM251500 18006KT P6SM SCT030 FM252300 15006KT P6SM SKC TEMPO 2610/2614 SCT015
KAUS 
36nm E 
251128Z 2512/2618 VRB03KT 4SM BR SCT005 FM251400 19006KT P6SM SCT030 FM252300 15006KT P6SM SKC TEMPO 2610/2614 SCT015
KRND 
37nm S 
250945Z 2510/2616 VRB06KT 8000 BR SCT010 QNH2995INS BECMG 2514/2515 VRB06KT 9999 NSW SCT018 QNH3000INS BECMG 2517/2518 21006KT 9999 SCT030 QNH2989INS BECMG 2608/2609 VRB06KT 8000 BR SCT003 QNH2993INS BECMG 2611/2612 VRB06KT 4800 BR OVC003 QNH2995INS BECMG 2614/2615 18010G15KT 9999 NSW BKN015 QNH2998INS TX31/2520Z TN16/2511Z
NOTAMs
Click for the latest NOTAMs
NOTAMs are issued by the DoD/FAA and will open in a separate window not controlled by AirNav.

 

 
 

Would you like to see your business listed on this page?

 If your business provides an interesting product or service to pilots, flight crews, aircraft, or users of the Blanco Landing Airport, you should consider listing it here.  To start the listing process, click on the button below
 
Add a business
 

Other Pages about Blanco Landing Airport

Update a link
 
Copyright © AirNav, LLC. All rights reserved. Privacy Policy  Contact